sensor_id;sensor_type;location;lat;lon;timestamp;pressure;altitude;pressure_sealevel;temperature;humidity
21236;BME280;10775;42.678;26.324;2023-08-20T00:02:18;98731.16;;;27.74;55.08
21236;BME280;10775;42.678;26.324;2023-08-20T00:04:46;98732.53;;;27.68;55.26
21236;BME280;10775;42.678;26.324;2023-08-20T00:07:12;98726.34;;;27.78;55.02
21236;BME280;10775;42.678;26.324;2023-08-20T00:09:37;98739.47;;;27.61;55.39
21236;BME280;10775;42.678;26.324;2023-08-20T00:12:03;98730.22;;;27.44;55.65
21236;BME280;10775;42.678;26.324;2023-08-20T00:17:22;98732.88;;;27.35;55.95
21236;BME280;10775;42.678;26.324;2023-08-20T00:19:50;98732.53;;;27.18;56.60
21236;BME280;10775;42.678;26.324;2023-08-20T00:22:16;98724.97;;;27.43;55.82
21236;BME280;10775;42.678;26.324;2023-08-20T00:24:42;98725.69;;;27.45;55.76
21236;BME280;10775;42.678;26.324;2023-08-20T00:27:07;98737.34;;;27.24;56.25
21236;BME280;10775;42.678;26.324;2023-08-20T00:29:33;98728.56;;;27.22;56.42
21236;BME280;10775;42.678;26.324;2023-08-20T00:31:58;98730.63;;;27.09;53.97
21236;BME280;10775;42.678;26.324;2023-08-20T00:34:24;98738.22;;;26.41;58.78
21236;BME280;10775;42.678;26.324;2023-08-20T00:36:49;98734.28;;;27.08;56.86
21236;BME280;10775;42.678;26.324;2023-08-20T00:39:15;98735.81;;;27.01;57.07
21236;BME280;10775;42.678;26.324;2023-08-20T00:41:40;98729.31;;;27.24;56.32
21236;BME280;10775;42.678;26.324;2023-08-20T00:44:06;98728.56;;;27.22;56.36
21236;BME280;10775;42.678;26.324;2023-08-20T00:46:31;98728.91;;;27.29;56.10
21236;BME280;10775;42.678;26.324;2023-08-20T00:48:57;98722.97;;;27.25;56.32
21236;BME280;10775;42.678;26.324;2023-08-20T00:51:23;98722.75;;;27.17;56.52
21236;BME280;10775;42.678;26.324;2023-08-20T00:53:48;98726.81;;;27.11;56.54
21236;BME280;10775;42.678;26.324;2023-08-20T00:56:15;98718.75;;;27.11;56.34
21236;BME280;10775;42.678;26.324;2023-08-20T00:58:41;98724.00;;;27.13;56.63
21236;BME280;10775;42.678;26.324;2023-08-20T01:01:07;98718.38;;;27.16;56.48
21236;BME280;10775;42.678;26.324;2023-08-20T01:03:32;98720.59;;;27.11;56.50
21236;BME280;10775;42.678;26.324;2023-08-20T01:09:05;98716.91;;;26.81;57.44
21236;BME280;10775;42.678;26.324;2023-08-20T01:11:37;98720.78;;;26.88;57.13
21236;BME280;10775;42.678;26.324;2023-08-20T01:14:16;98719.38;;;26.94;57.12
21236;BME280;10775;42.678;26.324;2023-08-20T01:16:42;98725.97;;;27.11;56.61
21236;BME280;10775;42.678;26.324;2023-08-20T01:19:14;98717.19;;;27.09;56.51
21236;BME280;10775;42.678;26.324;2023-08-20T01:29:32;98715.59;;;26.97;56.62
21236;BME280;10775;42.678;26.324;2023-08-20T01:31:57;98709.25;;;26.98;56.81
21236;BME280;10775;42.678;26.324;2023-08-20T01:34:24;98720.72;;;27.09;56.43
21236;BME280;10775;42.678;26.324;2023-08-20T01:36:49;98712.84;;;27.08;56.36
21236;BME280;10775;42.678;26.324;2023-08-20T01:39:15;98714.06;;;27.04;56.49
21236;BME280;10775;42.678;26.324;2023-08-20T01:41:40;98717.31;;;26.98;56.68
21236;BME280;10775;42.678;26.324;2023-08-20T01:44:06;98719.81;;;26.89;56.80
21236;BME280;10775;42.678;26.324;2023-08-20T01:46:32;98720.47;;;26.82;57.06
21236;BME280;10775;42.678;26.324;2023-08-20T01:48:57;98706.47;;;26.78;57.28
21236;BME280;10775;42.678;26.324;2023-08-20T01:51:23;98708.47;;;26.86;56.87
21236;BME280;10775;42.678;26.324;2023-08-20T01:53:49;98704.16;;;26.95;56.80
21236;BME280;10775;42.678;26.324;2023-08-20T01:56:14;98704.34;;;27.03;56.45
21236;BME280;10775;42.678;26.324;2023-08-20T01:58:41;98703.88;;;26.98;56.37
21236;BME280;10775;42.678;26.324;2023-08-20T02:01:06;98689.31;;;26.91;56.43
21236;BME280;10775;42.678;26.324;2023-08-20T02:03:32;98687.69;;;26.78;56.89
21236;BME280;10775;42.678;26.324;2023-08-20T02:05:57;98694.06;;;26.77;57.02
21236;BME280;10775;42.678;26.324;2023-08-20T02:08:22;98698.16;;;26.81;56.90
21236;BME280;10775;42.678;26.324;2023-08-20T02:10:48;98703.53;;;26.60;57.38
21236;BME280;10775;42.678;26.324;2023-08-20T02:13:13;98701.84;;;26.59;57.44
21236;BME280;10775;42.678;26.324;2023-08-20T02:15:39;98705.63;;;26.57;57.75
21236;BME280;10775;42.678;26.324;2023-08-20T02:18:04;98700.56;;;26.42;57.99
21236;BME280;10775;42.678;26.324;2023-08-20T02:20:30;98703.03;;;26.13;56.06
21236;BME280;10775;42.678;26.324;2023-08-20T02:22:55;98698.69;;;25.46;58.87
21236;BME280;10775;42.678;26.324;2023-08-20T02:25:21;98694.22;;;25.79;60.21
21236;BME280;10775;42.678;26.324;2023-08-20T02:27:46;98695.38;;;26.09;59.11
21236;BME280;10775;42.678;26.324;2023-08-20T02:30:12;98693.88;;;26.16;58.98
21236;BME280;10775;42.678;26.324;2023-08-20T02:32:40;98695.47;;;26.39;57.86
21236;BME280;10775;42.678;26.324;2023-08-20T02:35:06;98702.66;;;26.39;58.17
21236;BME280;10775;42.678;26.324;2023-08-20T02:37:32;98699.53;;;26.34;58.08
21236;BME280;10775;42.678;26.324;2023-08-20T02:39:57;98702.78;;;26.16;58.74
21236;BME280;10775;42.678;26.324;2023-08-20T02:42:23;98701.94;;;25.61;57.97
21236;BME280;10775;42.678;26.324;2023-08-20T02:44:48;98696.44;;;25.85;57.01
21236;BME280;10775;42.678;26.324;2023-08-20T02:47:14;98685.34;;;25.78;59.69
21236;BME280;10775;42.678;26.324;2023-08-20T02:49:39;98709.09;;;25.72;60.10
21236;BME280;10775;42.678;26.324;2023-08-20T02:52:05;98699.78;;;25.44;60.15
21236;BME280;10775;42.678;26.324;2023-08-20T02:54:30;98705.53;;;25.28;57.48
21236;BME280;10775;42.678;26.324;2023-08-20T02:56:58;98708.56;;;26.00;59.66
21236;BME280;10775;42.678;26.324;2023-08-20T02:59:23;98701.41;;;26.22;58.59
21236;BME280;10775;42.678;26.324;2023-08-20T03:01:49;98707.28;;;26.16;58.71
21236;BME280;10775;42.678;26.324;2023-08-20T03:04:14;98709.06;;;26.27;58.46
21236;BME280;10775;42.678;26.324;2023-08-20T03:06:40;98701.41;;;26.22;58.61
21236;BME280;10775;42.678;26.324;2023-08-20T03:09:05;98711.16;;;26.23;58.34
21236;BME280;10775;42.678;26.324;2023-08-20T03:11:31;98702.16;;;26.13;58.85
21236;BME280;10775;42.678;26.324;2023-08-20T03:13:56;98704.16;;;26.11;59.12
21236;BME280;10775;42.678;26.324;2023-08-20T03:16:22;98705.56;;;26.15;58.63
21236;BME280;10775;42.678;26.324;2023-08-20T03:18:47;98707.84;;;26.31;58.25
21236;BME280;10775;42.678;26.324;2023-08-20T03:21:13;98703.59;;;26.49;57.46
21236;BME280;10775;42.678;26.324;2023-08-20T03:23:38;98696.88;;;26.22;58.31
21236;BME280;10775;42.678;26.324;2023-08-20T03:26:04;98702.22;;;26.34;58.07
21236;BME280;10775;42.678;26.324;2023-08-20T03:28:29;98688.53;;;26.16;58.36
21236;BME280;10775;42.678;26.324;2023-08-20T03:30:55;98698.34;;;26.27;58.05
21236;BME280;10775;42.678;26.324;2023-08-20T03:33:20;98695.66;;;26.48;57.58
21236;BME280;10775;42.678;26.324;2023-08-20T03:35:46;98697.88;;;26.54;57.58
21236;BME280;10775;42.678;26.324;2023-08-20T03:38:11;98697.50;;;26.47;57.34
21236;BME280;10775;42.678;26.324;2023-08-20T03:40:36;98695.97;;;26.12;56.16
21236;BME280;10775;42.678;26.324;2023-08-20T03:43:02;98696.84;;;26.34;57.92
21236;BME280;10775;42.678;26.324;2023-08-20T03:45:28;98689.00;;;26.21;57.81
21236;BME280;10775;42.678;26.324;2023-08-20T03:47:55;98685.41;;;26.32;57.97
21236;BME280;10775;42.678;26.324;2023-08-20T03:50:20;98692.78;;;26.39;57.59
21236;BME280;10775;42.678;26.324;2023-08-20T03:52:46;98697.22;;;26.61;56.87
21236;BME280;10775;42.678;26.324;2023-08-20T03:55:11;98698.88;;;26.41;57.33
21236;BME280;10775;42.678;26.324;2023-08-20T03:57:37;98700.66;;;26.20;57.80
21236;BME280;10775;42.678;26.324;2023-08-20T04:00:02;98699.78;;;26.31;57.78
21236;BME280;10775;42.678;26.324;2023-08-20T04:02:29;98698.47;;;25.81;58.96
21236;BME280;10775;42.678;26.324;2023-08-20T04:04:54;98702.69;;;26.07;58.39
21236;BME280;10775;42.678;26.324;2023-08-20T04:07:22;98701.53;;;25.77;59.15
21236;BME280;10775;42.678;26.324;2023-08-20T04:09:47;98703.88;;;26.14;58.18
21236;BME280;10775;42.678;26.324;2023-08-20T04:12:13;98700.38;;;26.02;58.62
21236;BME280;10775;42.678;26.324;2023-08-20T04:14:39;98688.66;;;26.14;58.08
21236;BME280;10775;42.678;26.324;2023-08-20T04:17:04;98699.72;;;26.21;58.01
21236;BME280;10775;42.678;26.324;2023-08-20T04:19:29;98694.19;;;26.01;57.96
21236;BME280;10775;42.678;26.324;2023-08-20T04:21:55;98700.94;;;25.85;58.86
21236;BME280;10775;42.678;26.324;2023-08-20T04:24:20;98693.75;;;25.74;59.02
21236;BME280;10775;42.678;26.324;2023-08-20T04:26:46;98695.47;;;25.86;58.66
21236;BME280;10775;42.678;26.324;2023-08-20T04:29:11;98695.94;;;25.80;56.32
21236;BME280;10775;42.678;26.324;2023-08-20T04:31:37;98698.16;;;25.64;56.76
21236;BME280;10775;42.678;26.324;2023-08-20T04:34:02;98696.47;;;25.51;59.95
21236;BME280;10775;42.678;26.324;2023-08-20T04:36:28;98691.78;;;25.87;58.82
21236;BME280;10775;42.678;26.324;2023-08-20T04:38:54;98686.56;;;25.74;58.55
21236;BME280;10775;42.678;26.324;2023-08-20T04:41:19;98687.91;;;25.91;58.52
21236;BME280;10775;42.678;26.324;2023-08-20T04:43:45;98696.03;;;26.01;58.44
21236;BME280;10775;42.678;26.324;2023-08-20T04:46:10;98695.63;;;26.06;58.13
21236;BME280;10775;42.678;26.324;2023-08-20T04:48:35;98693.22;;;25.48;58.85
21236;BME280;10775;42.678;26.324;2023-08-20T04:51:01;98690.50;;;25.70;56.42
21236;BME280;10775;42.678;26.324;2023-08-20T04:53:26;98702.09;;;25.48;59.62
21236;BME280;10775;42.678;26.324;2023-08-20T04:55:52;98694.72;;;25.95;57.88
21236;BME280;10775;42.678;26.324;2023-08-20T04:58:17;98702.31;;;26.11;56.41
21236;BME280;10775;42.678;26.324;2023-08-20T05:00:43;98697.53;;;25.71;56.02
21236;BME280;10775;42.678;26.324;2023-08-20T05:03:09;98691.06;;;25.74;58.99
21236;BME280;10775;42.678;26.324;2023-08-20T05:05:34;98695.94;;;25.80;58.63
21236;BME280;10775;42.678;26.324;2023-08-20T05:07:59;98698.88;;;26.20;57.53
21236;BME280;10775;42.678;26.324;2023-08-20T05:10:25;98699.25;;;26.16;57.63
21236;BME280;10775;42.678;26.324;2023-08-20T05:12:50;98699.81;;;25.98;57.80
21236;BME280;10775;42.678;26.324;2023-08-20T05:15:16;98703.13;;;26.23;57.36
21236;BME280;10775;42.678;26.324;2023-08-20T05:17:41;98693.19;;;26.35;57.11
21236;BME280;10775;42.678;26.324;2023-08-20T05:20:07;98697.06;;;25.66;57.48
21236;BME280;10775;42.678;26.324;2023-08-20T05:22:34;98691.97;;;25.63;54.73
21236;BME280;10775;42.678;26.324;2023-08-20T05:24:59;98695.22;;;25.67;52.96
21236;BME280;10775;42.678;26.324;2023-08-20T05:27:24;98694.25;;;25.90;52.46
21236;BME280;10775;42.678;26.324;2023-08-20T05:29:50;98697.97;;;25.99;51.74
21236;BME280;10775;42.678;26.324;2023-08-20T05:32:15;98694.38;;;26.10;51.21
21236;BME280;10775;42.678;26.324;2023-08-20T05:34:41;98699.25;;;26.16;54.75
21236;BME280;10775;42.678;26.324;2023-08-20T05:37:07;98699.78;;;26.31;50.88
21236;BME280;10775;42.678;26.324;2023-08-20T05:39:41;98704.19;;;26.53;49.91
21236;BME280;10775;42.678;26.324;2023-08-20T05:42:07;98688.72;;;26.56;49.23
21236;BME280;10775;42.678;26.324;2023-08-20T05:44:32;98690.72;;;26.64;51.83
21236;BME280;10775;42.678;26.324;2023-08-20T05:46:58;98694.06;;;26.77;48.35
21236;BME280;10775;42.678;26.324;2023-08-20T05:49:24;98693.94;;;26.88;48.63
21236;BME280;10775;42.678;26.324;2023-08-20T05:51:49;98689.84;;;26.84;48.37
21236;BME280;10775;42.678;26.324;2023-08-20T05:54:14;98688.91;;;26.95;50.40
21236;BME280;10775;42.678;26.324;2023-08-20T05:56:40;98679.59;;;26.99;47.59
21236;BME280;10775;42.678;26.324;2023-08-20T05:59:05;98681.44;;;26.99;48.24
21236;BME280;10775;42.678;26.324;2023-08-20T06:01:31;98680.91;;;27.05;47.43
21236;BME280;10775;42.678;26.324;2023-08-20T06:03:56;98665.47;;;27.18;47.02
21236;BME280;10775;42.678;26.324;2023-08-20T06:06:22;98669.56;;;27.22;47.30
21236;BME280;10775;42.678;26.324;2023-08-20T06:08:47;98672.72;;;27.37;46.70
21236;BME280;10775;42.678;26.324;2023-08-20T06:11:13;98669.63;;;27.42;46.35
21236;BME280;10775;42.678;26.324;2023-08-20T06:13:38;98671.63;;;27.49;46.58
21236;BME280;10775;42.678;26.324;2023-08-20T06:16:04;98672.63;;;27.68;46.10
21236;BME280;10775;42.678;26.324;2023-08-20T06:18:30;98673.53;;;27.88;46.33
21236;BME280;10775;42.678;26.324;2023-08-20T06:20:55;98674.53;;;27.87;47.40
21236;BME280;10775;42.678;26.324;2023-08-20T06:23:21;98673.13;;;28.02;48.60
21236;BME280;10775;42.678;26.324;2023-08-20T06:25:46;98679.75;;;28.08;47.95
21236;BME280;10775;42.678;26.324;2023-08-20T06:28:11;98682.56;;;28.06;50.15
21236;BME280;10775;42.678;26.324;2023-08-20T06:30:37;98684.97;;;28.09;47.48
21236;BME280;10775;42.678;26.324;2023-08-20T06:33:02;98689.94;;;28.24;46.96
21236;BME280;10775;42.678;26.324;2023-08-20T06:35:28;98685.09;;;28.37;45.30
21236;BME280;10775;42.678;26.324;2023-08-20T06:37:53;98679.31;;;28.51;45.22
21236;BME280;10775;42.678;26.324;2023-08-20T06:40:19;98688.09;;;28.53;45.79
21236;BME280;10775;42.678;26.324;2023-08-20T06:42:44;98682.66;;;28.73;47.56
21236;BME280;10775;42.678;26.324;2023-08-20T06:45:10;98681.38;;;28.77;45.33
21236;BME280;10775;42.678;26.324;2023-08-20T06:47:35;98684.16;;;28.95;44.92
21236;BME280;10775;42.678;26.324;2023-08-20T06:50:02;98682.13;;;28.69;46.00
21236;BME280;10775;42.678;26.324;2023-08-20T06:52:27;98687.56;;;28.87;45.62
21236;BME280;10775;42.678;26.324;2023-08-20T06:54:53;98683.66;;;29.19;44.42
21236;BME280;10775;42.678;26.324;2023-08-20T06:57:18;98680.66;;;29.22;45.24
21236;BME280;10775;42.678;26.324;2023-08-20T06:59:44;98691.59;;;29.20;44.73
21236;BME280;10775;42.678;26.324;2023-08-20T07:02:10;98690.44;;;29.51;44.83
21236;BME280;10775;42.678;26.324;2023-08-20T07:04:35;98684.75;;;29.81;44.31
21236;BME280;10775;42.678;26.324;2023-08-20T07:07:01;98682.34;;;29.96;43.75
21236;BME280;10775;42.678;26.324;2023-08-20T07:09:27;98694.47;;;30.80;42.45
21236;BME280;10775;42.678;26.324;2023-08-20T07:11:52;98693.56;;;30.89;41.87
21236;BME280;10775;42.678;26.324;2023-08-20T07:14:17;98686.34;;;30.98;41.31
21236;BME280;10775;42.678;26.324;2023-08-20T07:16:43;98693.06;;;31.20;40.78
21236;BME280;10775;42.678;26.324;2023-08-20T07:19:08;98697.00;;;31.84;40.66
21236;BME280;10775;42.678;26.324;2023-08-20T07:21:34;98688.91;;;31.93;39.47
21236;BME280;10775;42.678;26.324;2023-08-20T07:23:59;98691.81;;;31.40;40.92
21236;BME280;10775;42.678;26.324;2023-08-20T07:26:25;98696.56;;;31.12;41.07
21236;BME280;10775;42.678;26.324;2023-08-20T07:28:50;98686.25;;;31.42;41.46
21236;BME280;10775;42.678;26.324;2023-08-20T07:31:23;98692.19;;;31.46;41.24
21236;BME280;10775;42.678;26.324;2023-08-20T07:33:49;98685.59;;;31.99;39.80
21236;BME280;10775;42.678;26.324;2023-08-20T07:36:15;98680.22;;;31.65;41.15
21236;BME280;10775;42.678;26.324;2023-08-20T07:38:41;98679.50;;;31.38;40.47
21236;BME280;10775;42.678;26.324;2023-08-20T07:41:08;98674.69;;;31.74;39.97
21236;BME280;10775;42.678;26.324;2023-08-20T07:43:34;98675.84;;;31.63;39.99
21236;BME280;10775;42.678;26.324;2023-08-20T07:45:59;98671.06;;;31.49;39.75
21236;BME280;10775;42.678;26.324;2023-08-20T07:48:25;98683.25;;;31.53;40.78
21236;BME280;10775;42.678;26.324;2023-08-20T07:50:50;98676.41;;;31.75;39.28
21236;BME280;10775;42.678;26.324;2023-08-20T07:53:16;98667.06;;;31.70;39.64
21236;BME280;10775;42.678;26.324;2023-08-20T07:55:41;98664.75;;;31.83;40.43
21236;BME280;10775;42.678;26.324;2023-08-20T07:58:07;98667.84;;;32.21;38.59
21236;BME280;10775;42.678;26.324;2023-08-20T08:00:32;98663.13;;;32.07;38.62
21236;BME280;10775;42.678;26.324;2023-08-20T08:02:57;98665.28;;;32.03;38.93
21236;BME280;10775;42.678;26.324;2023-08-20T08:05:23;98664.91;;;31.90;39.00
21236;BME280;10775;42.678;26.324;2023-08-20T08:07:48;98663.38;;;31.79;39.23
21236;BME280;10775;42.678;26.324;2023-08-20T08:10:14;98657.31;;;31.77;39.10
21236;BME280;10775;42.678;26.324;2023-08-20T08:12:39;98654.00;;;32.24;37.99
21236;BME280;10775;42.678;26.324;2023-08-20T08:15:05;98655.34;;;32.44;37.90
21236;BME280;10775;42.678;26.324;2023-08-20T08:17:31;98661.25;;;32.32;37.64
21236;BME280;10775;42.678;26.324;2023-08-20T08:19:56;98661.56;;;32.61;37.52
21236;BME280;10775;42.678;26.324;2023-08-20T08:22:23;98666.69;;;32.32;38.07
21236;BME280;10775;42.678;26.324;2023-08-20T08:24:48;98669.69;;;32.12;37.79
21236;BME280;10775;42.678;26.324;2023-08-20T08:27:13;98660.25;;;32.16;38.31
21236;BME280;10775;42.678;26.324;2023-08-20T08:29:39;98658.91;;;32.04;37.40
21236;BME280;10775;42.678;26.324;2023-08-20T08:32:04;98668.84;;;32.28;37.69
21236;BME280;10775;42.678;26.324;2023-08-20T08:34:30;98659.72;;;32.37;37.32
21236;BME280;10775;42.678;26.324;2023-08-20T08:36:55;98668.19;;;32.51;36.83
21236;BME280;10775;42.678;26.324;2023-08-20T08:39:21;98666.31;;;32.76;36.21
21236;BME280;10775;42.678;26.324;2023-08-20T08:41:50;98664.31;;;32.53;37.68
21236;BME280;10775;42.678;26.324;2023-08-20T08:44:16;98666.63;;;33.28;35.76
21236;BME280;10775;42.678;26.324;2023-08-20T08:46:42;98670.34;;;32.88;36.17
21236;BME280;10775;42.678;26.324;2023-08-20T08:49:08;98666.47;;;32.66;37.92
21236;BME280;10775;42.678;26.324;2023-08-20T08:51:34;98671.72;;;32.67;37.05
21236;BME280;10775;42.678;26.324;2023-08-20T08:54:02;98671.91;;;32.58;38.82
21236;BME280;10775;42.678;26.324;2023-08-20T08:56:27;98664.38;;;32.92;36.83
21236;BME280;10775;42.678;26.324;2023-08-20T08:58:54;98665.78;;;32.80;37.60
21236;BME280;10775;42.678;26.324;2023-08-20T09:01:19;98666.13;;;32.69;37.56
21236;BME280;10775;42.678;26.324;2023-08-20T09:03:45;98673.94;;;32.39;36.91
21236;BME280;10775;42.678;26.324;2023-08-20T09:06:11;98665.56;;;32.90;37.98
21236;BME280;10775;42.678;26.324;2023-08-20T09:08:37;98673.41;;;32.44;37.49
21236;BME280;10775;42.678;26.324;2023-08-20T09:11:02;98671.75;;;32.51;37.74
21236;BME280;10775;42.678;26.324;2023-08-20T09:13:36;98669.69;;;32.45;37.12
21236;BME280;10775;42.678;26.324;2023-08-20T09:16:10;98682.38;;;32.36;37.24
21236;BME280;10775;42.678;26.324;2023-08-20T09:18:40;98678.31;;;32.16;38.81
21236;BME280;10775;42.678;26.324;2023-08-20T09:21:07;98676.59;;;32.72;36.73
21236;BME280;10775;42.678;26.324;2023-08-20T09:23:33;98669.88;;;32.52;35.99
21236;BME280;10775;42.678;26.324;2023-08-20T09:26:01;98671.38;;;32.54;37.94
21236;BME280;10775;42.678;26.324;2023-08-20T09:28:27;98664.28;;;32.61;37.16
21236;BME280;10775;42.678;26.324;2023-08-20T09:30:59;98655.00;;;33.51;36.15
21236;BME280;10775;42.678;26.324;2023-08-20T09:33:28;98668.84;;;33.64;34.92
21236;BME280;10775;42.678;26.324;2023-08-20T09:35:53;98664.38;;;33.01;35.85
21236;BME280;10775;42.678;26.324;2023-08-20T09:38:21;98677.78;;;32.86;36.04
21236;BME280;10775;42.678;26.324;2023-08-20T09:40:56;98660.38;;;32.80;36.18
21236;BME280;10775;42.678;26.324;2023-08-20T09:43:24;98668.66;;;32.79;36.21
21236;BME280;10775;42.678;26.324;2023-08-20T09:45:54;98661.88;;;32.75;37.03
21236;BME280;10775;42.678;26.324;2023-08-20T09:48:20;98651.84;;;33.00;36.19
21236;BME280;10775;42.678;26.324;2023-08-20T09:50:49;98650.44;;;32.48;36.65
21236;BME280;10775;42.678;26.324;2023-08-20T09:53:27;98650.31;;;32.97;35.74
21236;BME280;10775;42.678;26.324;2023-08-20T09:55:58;98652.56;;;32.85;35.53
21236;BME280;10775;42.678;26.324;2023-08-20T09:58:25;98646.69;;;32.74;35.93
21236;BME280;10775;42.678;26.324;2023-08-20T10:00:52;98647.28;;;32.92;34.74
21236;BME280;10775;42.678;26.324;2023-08-20T10:03:20;98656.97;;;32.86;37.05
21236;BME280;10775;42.678;26.324;2023-08-20T10:05:48;98664.06;;;32.87;35.29
21236;BME280;10775;42.678;26.324;2023-08-20T10:08:15;98649.13;;;33.08;36.62
21236;BME280;10775;42.678;26.324;2023-08-20T10:10:40;98649.44;;;33.13;35.37
21236;BME280;10775;42.678;26.324;2023-08-20T10:13:06;98641.63;;;33.26;35.44
21236;BME280;10775;42.678;26.324;2023-08-20T10:15:32;98656.63;;;33.37;34.90
21236;BME280;10775;42.678;26.324;2023-08-20T10:18:00;98648.75;;;33.19;35.32
21236;BME280;10775;42.678;26.324;2023-08-20T10:20:28;98647.94;;;33.50;36.78
21236;BME280;10775;42.678;26.324;2023-08-20T10:23:00;98649.66;;;33.43;37.45
21236;BME280;10775;42.678;26.324;2023-08-20T10:25:26;98641.53;;;33.43;35.42
21236;BME280;10775;42.678;26.324;2023-08-20T10:27:53;98642.44;;;33.66;37.42
21236;BME280;10775;42.678;26.324;2023-08-20T10:30:27;98634.44;;;33.73;35.54
21236;BME280;10775;42.678;26.324;2023-08-20T10:35:25;98647.31;;;33.94;36.56
21236;BME280;10775;42.678;26.324;2023-08-20T10:40:48;98648.44;;;33.14;37.59
21236;BME280;10775;42.678;26.324;2023-08-20T10:43:37;98641.94;;;33.23;37.45
21236;BME280;10775;42.678;26.324;2023-08-20T10:46:19;98642.94;;;33.30;37.75
21236;BME280;10775;42.678;26.324;2023-08-20T10:48:50;98636.88;;;32.73;38.07
21236;BME280;10775;42.678;26.324;2023-08-20T10:51:18;98652.75;;;32.84;38.29
21236;BME280;10775;42.678;26.324;2023-08-20T10:53:51;98640.47;;;32.48;38.78
21236;BME280;10775;42.678;26.324;2023-08-20T10:56:44;98637.78;;;33.44;37.53
21236;BME280;10775;42.678;26.324;2023-08-20T10:59:16;98637.47;;;32.99;37.73
21236;BME280;10775;42.678;26.324;2023-08-20T11:01:50;98635.78;;;33.38;37.27
21236;BME280;10775;42.678;26.324;2023-08-20T11:04:18;98633.19;;;33.52;37.37
21236;BME280;10775;42.678;26.324;2023-08-20T11:06:44;98620.16;;;33.79;36.69
21236;BME280;10775;42.678;26.324;2023-08-20T11:09:10;98628.34;;;33.94;35.69
21236;BME280;10775;42.678;26.324;2023-08-20T11:11:42;98624.44;;;33.73;36.07
21236;BME280;10775;42.678;26.324;2023-08-20T11:14:15;98621.16;;;33.24;37.25
21236;BME280;10775;42.678;26.324;2023-08-20T11:16:41;98618.50;;;33.47;36.98
21236;BME280;10775;42.678;26.324;2023-08-20T11:19:08;98611.53;;;33.21;36.64
21236;BME280;10775;42.678;26.324;2023-08-20T11:21:41;98615.63;;;33.09;37.57
21236;BME280;10775;42.678;26.324;2023-08-20T11:24:07;98605.47;;;33.11;37.91
21236;BME280;10775;42.678;26.324;2023-08-20T11:26:36;98600.19;;;33.72;36.97
21236;BME280;10775;42.678;26.324;2023-08-20T11:29:07;98589.94;;;34.05;35.85
21236;BME280;10775;42.678;26.324;2023-08-20T11:31:33;98589.56;;;33.70;36.30
21236;BME280;10775;42.678;26.324;2023-08-20T11:33:58;98577.19;;;33.45;35.78
21236;BME280;10775;42.678;26.324;2023-08-20T11:36:24;98566.63;;;33.58;37.97
21236;BME280;10775;42.678;26.324;2023-08-20T11:38:51;98578.94;;;34.07;35.98
21236;BME280;10775;42.678;26.324;2023-08-20T11:41:23;98579.44;;;34.25;35.41
21236;BME280;10775;42.678;26.324;2023-08-20T11:43:49;98573.38;;;34.23;35.40
21236;BME280;10775;42.678;26.324;2023-08-20T11:46:19;98558.59;;;34.26;35.42
21236;BME280;10775;42.678;26.324;2023-08-20T11:51:28;98556.75;;;35.00;33.81
21236;BME280;10775;42.678;26.324;2023-08-20T11:53:54;98557.72;;;34.10;34.81
21236;BME280;10775;42.678;26.324;2023-08-20T11:56:20;98572.09;;;34.49;35.48
21236;BME280;10775;42.678;26.324;2023-08-20T11:58:52;98565.16;;;34.31;34.69
21236;BME280;10775;42.678;26.324;2023-08-20T12:01:18;98549.81;;;34.53;33.60
21236;BME280;10775;42.678;26.324;2023-08-20T12:03:44;98545.13;;;34.92;34.75
21236;BME280;10775;42.678;26.324;2023-08-20T12:06:20;98554.03;;;34.26;35.25
21236;BME280;10775;42.678;26.324;2023-08-20T12:08:46;98552.06;;;34.35;34.46
21236;BME280;10775;42.678;26.324;2023-08-20T12:11:12;98553.94;;;34.34;33.88
21236;BME280;10775;42.678;26.324;2023-08-20T12:13:38;98552.72;;;34.22;35.15
21236;BME280;10775;42.678;26.324;2023-08-20T12:16:03;98538.13;;;34.00;34.79
21236;BME280;10775;42.678;26.324;2023-08-20T12:18:29;98537.91;;;34.10;35.82
21236;BME280;10775;42.678;26.324;2023-08-20T12:20:55;98548.50;;;34.19;33.15
21236;BME280;10775;42.678;26.324;2023-08-20T12:23:21;98565.50;;;34.13;33.35
21236;BME280;10775;42.678;26.324;2023-08-20T12:25:50;98550.81;;;33.85;32.56
21236;BME280;10775;42.678;26.324;2023-08-20T12:28:16;98563.13;;;33.72;33.22
21236;BME280;10775;42.678;26.324;2023-08-20T12:30:41;98531.50;;;34.03;32.13
21236;BME280;10775;42.678;26.324;2023-08-20T12:33:07;98546.25;;;34.38;32.31
21236;BME280;10775;42.678;26.324;2023-08-20T12:35:32;98549.25;;;33.90;32.11
21236;BME280;10775;42.678;26.324;2023-08-20T12:37:58;98543.38;;;34.02;32.35
21236;BME280;10775;42.678;26.324;2023-08-20T12:40:23;98539.41;;;34.12;32.13
21236;BME280;10775;42.678;26.324;2023-08-20T12:42:49;98533.34;;;34.40;32.29
21236;BME280;10775;42.678;26.324;2023-08-20T12:45:14;98536.47;;;34.52;31.67
21236;BME280;10775;42.678;26.324;2023-08-20T12:47:40;98548.81;;;34.69;31.55
21236;BME280;10775;42.678;26.324;2023-08-20T12:50:06;98549.44;;;34.27;31.47
21236;BME280;10775;42.678;26.324;2023-08-20T12:52:32;98551.13;;;34.57;31.86
21236;BME280;10775;42.678;26.324;2023-08-20T12:54:58;98535.78;;;34.35;31.32
21236;BME280;10775;42.678;26.324;2023-08-20T12:57:23;98536.63;;;34.35;32.05
21236;BME280;10775;42.678;26.324;2023-08-20T12:59:49;98530.25;;;34.28;31.72
21236;BME280;10775;42.678;26.324;2023-08-20T13:02:14;98521.00;;;34.52;32.02
21236;BME280;10775;42.678;26.324;2023-08-20T13:04:41;98513.72;;;34.82;31.50
21236;BME280;10775;42.678;26.324;2023-08-20T13:07:07;98518.38;;;34.74;31.80
21236;BME280;10775;42.678;26.324;2023-08-20T13:09:33;98500.16;;;34.68;31.94